Time;durP1;ratioP1;P1;durP2;ratioP2;P2;SDS_P1;SDS_P2;PMS_P1;PMS_P2;Temp;Humidity;BMP_temperature;BMP_pressure;BME280_temperature;BME280_humidity;BME280_pressure;Samples;Min_cycle;Max_cycle;Signal;HPM_P1;HPM_P2
2022/05/03 00:01:58;;;;;;;8.57;7.80;;;11.00;29.80;;;;;;5072299;28;20407;-69
2022/05/03 00:04:39;;;;;;;9.90;8.67;;;11.00;30.10;;;;;;5072058;28;20850;-69
2022/05/03 00:07:27;;;;;;;9.50;8.63;;;11.00;30.00;;;;;;5072347;28;20414;-69
2022/05/03 00:10:01;;;;;;;9.87;9.13;;;10.90;30.20;;;;;;5072123;28;20418;-69
2022/05/03 00:12:34;;;;;;;11.07;8.00;;;10.80;31.70;;;;;;5072153;28;20401;-69
2022/05/03 00:15:02;;;;;;;13.30;10.17;;;10.50;32.30;;;;;;5070753;28;20443;-69
2022/05/03 00:17:29;;;;;;;10.17;9.00;;;10.50;32.80;;;;;;5071728;28;20464;-69
2022/05/03 00:19:55;;;;;;;9.37;8.57;;;10.30;34.10;;;;;;5070725;28;20423;-69
2022/05/03 00:22:21;;;;;;;9.13;8.23;;;10.20;34.80;;;;;;5072208;28;20491;-70
2022/05/03 00:24:48;;;;;;;8.40;7.30;;;10.10;35.50;;;;;;5072197;28;20229;-69
2022/05/03 00:27:14;;;;;;;9.37;8.00;;;10.20;36.00;;;;;;5071981;28;20503;-69
2022/05/03 00:29:40;;;;;;;13.10;9.13;;;10.10;35.40;;;;;;5072030;28;20443;-69
2022/05/03 00:32:06;;;;;;;11.30;10.13;;;10.20;35.20;;;;;;5072129;28;20520;-69
2022/05/03 00:34:35;;;;;;;11.20;9.43;;;10.20;34.50;;;;;;5071963;28;20426;-69
2022/05/03 00:37:01;;;;;;;10.23;8.53;;;10.30;33.80;;;;;;5071954;28;20491;-69
2022/05/03 00:39:27;;;;;;;9.73;8.73;;;10.40;33.50;;;;;;5071783;28;20412;-69
2022/05/03 00:42:28;;;;;;;7.93;7.30;;;10.40;33.60;;;;;;5071909;28;20637;-69
2022/05/03 00:45:11;;;;;;;9.80;8.80;;;10.40;33.50;;;;;;5062755;28;20290;-69
2022/05/03 00:48:17;;;;;;;9.43;8.47;;;10.40;33.70;;;;;;5071647;28;20821;-69
2022/05/03 00:50:44;;;;;;;9.93;8.93;;;10.50;33.30;;;;;;5071993;28;20426;-69
2022/05/03 00:53:20;;;;;;;9.93;7.90;;;10.50;32.60;;;;;;5076009;28;20895;-69
2022/05/03 00:55:48;;;;;;;7.27;6.67;;;10.50;33.10;;;;;;5076016;28;20426;-69
2022/05/03 00:58:36;;;;;;;7.90;7.00;;;10.30;33.50;;;;;;5075626;28;20981;-68
2022/05/03 01:01:15;;;;;;;8.67;7.93;;;10.20;33.50;;;;;;5076041;28;20392;-69
2022/05/03 01:04:00;;;;;;;9.23;7.17;;;10.30;34.10;;;;;;5074388;28;20517;-68
2022/05/03 01:06:53;;;;;;;9.27;6.93;;;10.40;33.40;;;;;;5075739;28;20787;-69
2022/05/03 01:09:29;;;;;;;7.83;7.03;;;10.30;33.50;;;;;;5075331;28;20408;-69
2022/05/03 01:12:12;;;;;;;8.80;7.20;;;10.20;33.20;;;;;;5075912;28;20420;-69
2022/05/03 01:14:56;;;;;;;8.53;7.30;;;10.10;33.40;;;;;;5075550;28;20778;-69
2022/05/03 01:17:43;;;;;;;10.30;8.67;;;10.10;33.60;;;;;;5075146;28;20454;-69
2022/05/03 01:20:13;;;;;;;15.63;8.80;;;10.10;33.50;;;;;;5075649;28;20725;-69
2022/05/03 01:22:57;;;;;;;11.13;7.93;;;10.00;33.40;;;;;;5075587;28;20414;-69
2022/05/03 01:25:44;;;;;;;9.03;8.13;;;9.90;34.50;;;;;;5075283;28;20482;-69
2022/05/03 01:28:30;;;;;;;11.57;8.10;;;9.90;34.60;;;;;;5075038;28;20413;-69
2022/05/03 01:31:06;;;;;;;7.73;6.93;;;9.60;35.80;;;;;;5075159;28;20432;-69
2022/05/03 01:33:36;;;;;;;8.87;7.90;;;9.60;36.10;;;;;;5075217;28;20478;-69
2022/05/03 01:36:05;;;;;;;9.83;8.83;;;9.60;35.60;;;;;;5075312;28;20414;-69
2022/05/03 01:38:43;;;;;;;9.90;9.00;;;9.60;35.70;;;;;;5074610;28;20592;-69
2022/05/03 01:41:41;;;;;;;15.63;8.20;;;9.60;35.90;;;;;;5075435;28;20412;-69
2022/05/03 01:44:18;;;;;;;8.87;7.97;;;9.60;35.30;;;;;;5074954;28;20440;-69
2022/05/03 01:46:46;;;;;;;10.50;8.67;;;9.50;35.10;;;;;;5074909;28;20874;-69
2022/05/03 01:52:43;;;;;;;9.60;7.37;;;9.30;36.50;;;;;;5075124;28;20933;-69
2022/05/03 01:55:15;;;;;;;8.77;7.70;;;9.30;36.50;;;;;;5074450;28;20943;-68
2022/05/03 01:57:55;;;;;;;9.97;8.97;;;9.30;36.40;;;;;;5074345;28;20605;-68
2022/05/03 02:00:23;;;;;;;11.03;9.67;;;9.20;36.50;;;;;;5074727;28;20408;-69
2022/05/03 02:03:01;;;;;;;8.73;8.00;;;9.10;36.40;;;;;;5074246;28;20412;-69
2022/05/03 02:05:53;;;;;;;7.13;6.43;;;9.10;36.40;;;;;;5072631;22;20508;-68
2022/05/03 02:08:24;;;;;;;8.03;7.20;;;9.10;36.20;;;;;;5034347;28;20414;-70
2022/05/03 02:11:34;;;;;;;9.17;8.27;;;9.00;36.30;;;;;;5034499;28;20406;-70
2022/05/03 02:17:01;;;;;;;9.90;8.90;;;9.00;37.50;;;;;;5034690;28;20505;-71
2022/05/03 02:19:35;;;;;;;9.57;8.07;;;8.90;36.70;;;;;;5034348;28;20428;-70
2022/05/03 02:22:30;;;;;;;13.50;8.97;;;8.90;36.70;;;;;;5034333;28;20852;-70
2022/05/03 02:25:21;;;;;;;7.97;7.17;;;8.80;37.00;;;;;;5034335;28;20422;-70
2022/05/03 02:28:13;;;;;;;9.60;6.13;;;8.70;37.50;;;;;;5032913;28;20426;-73
2022/05/03 02:30:41;;;;;;;9.83;7.30;;;8.60;38.20;;;;;;5034352;28;20418;-68
2022/05/03 02:33:07;;;;;;;9.40;8.50;;;8.50;37.50;;;;;;5033103;28;20603;-69
2022/05/03 02:35:34;;;;;;;9.80;8.90;;;8.50;38.30;;;;;;5034373;28;20988;-69
2022/05/03 02:38:05;;;;;;;8.23;7.40;;;8.50;38.70;;;;;;5033713;28;20206;-69
2022/05/03 02:40:32;;;;;;;10.33;7.70;;;8.50;38.30;;;;;;5034387;28;20418;-69
2022/05/03 02:42:58;;;;;;;7.53;6.40;;;8.40;38.70;;;;;;5033795;28;20903;-69
2022/05/03 02:45:24;;;;;;;7.90;7.17;;;8.40;38.70;;;;;;5033838;28;20436;-69
2022/05/03 02:48:14;;;;;;;8.67;7.77;;;8.40;38.90;;;;;;5033584;28;20413;-69
2022/05/03 02:50:55;;;;;;;7.80;7.03;;;8.40;38.60;;;;;;5033930;28;20414;-70
2022/05/03 02:53:36;;;;;;;7.90;7.10;;;8.30;38.80;;;;;;5032400;28;20452;-68
2022/05/03 02:56:22;;;;;;;8.00;7.30;;;8.40;38.50;;;;;;5033617;28;20437;-67
2022/05/03 02:59:00;;;;;;;10.87;7.80;;;8.40;38.50;;;;;;5033299;28;20550;-68
2022/05/03 03:01:49;;;;;;;10.80;7.47;;;8.30;38.60;;;;;;5033641;28;20819;-69
2022/05/03 03:04:47;;;;;;;9.60;8.00;;;8.30;39.40;;;;;;5033363;28;20433;-69
2022/05/03 03:07:17;;;;;;;9.50;7.37;;;8.30;39.60;;;;;;5033300;28;20421;-69
2022/05/03 03:10:05;;;;;;;14.67;9.40;;;8.30;39.70;;;;;;5033423;28;20418;-69
2022/05/03 03:12:33;;;;;;;7.40;6.70;;;8.30;40.00;;;;;;5033521;28;20915;-69
2022/05/03 03:15:04;;;;;;;10.00;7.97;;;8.30;39.60;;;;;;5031266;28;20533;-70
2022/05/03 03:17:33;;;;;;;10.60;8.77;;;8.30;39.70;;;;;;5033040;28;20958;-70
2022/05/03 03:19:59;;;;;;;8.63;7.80;;;8.30;39.00;;;;;;5033346;28;20901;-70
2022/05/03 03:22:29;;;;;;;8.40;7.30;;;8.30;38.30;;;;;;5033182;28;20505;-70
2022/05/03 03:24:57;;;;;;;8.40;7.53;;;8.30;38.70;;;;;;5033381;28;20198;-70
2022/05/03 03:27:26;;;;;;;8.10;7.30;;;8.30;38.60;;;;;;5033883;28;20828;-69
2022/05/03 03:29:55;;;;;;;10.60;8.07;;;8.20;38.60;;;;;;5033226;28;20441;-70
2022/05/03 03:32:24;;;;;;;7.90;7.20;;;8.10;39.00;;;;;;5033255;28;20500;-69
2022/05/03 03:34:53;;;;;;;7.33;6.63;;;8.20;38.80;;;;;;5033483;28;20441;-70
2022/05/03 03:37:23;;;;;;;11.53;7.60;;;8.10;38.80;;;;;;5031317;28;20473;-69
2022/05/03 03:39:48;;;;;;;8.00;7.20;;;8.10;38.90;;;;;;5032967;28;20402;-68
2022/05/03 03:42:14;;;;;;;9.80;8.10;;;8.00;38.60;;;;;;5033263;28;20458;-69
2022/05/03 03:44:40;;;;;;;9.03;8.20;;;8.00;38.50;;;;;;5031639;28;20232;-69
2022/05/03 03:47:05;;;;;;;8.20;7.40;;;8.00;38.50;;;;;;5033595;28;20183;-69
2022/05/03 03:49:33;;;;;;;16.63;9.23;;;7.90;39.00;;;;;;5033658;28;20175;-69
2022/05/03 03:51:59;;;;;;;9.87;8.00;;;7.90;39.10;;;;;;5031684;28;20234;-69
2022/05/03 03:54:26;;;;;;;8.47;7.53;;;7.80;39.80;;;;;;5032592;28;20445;-69
2022/05/03 03:56:53;;;;;;;7.33;6.63;;;7.80;39.50;;;;;;5032689;28;20590;-68
2022/05/03 03:59:19;;;;;;;8.90;6.90;;;7.80;39.50;;;;;;5032577;28;20423;-69
2022/05/03 04:01:45;;;;;;;13.43;7.97;;;7.80;39.90;;;;;;5031318;28;20799;-69
2022/05/03 04:04:13;;;;;;;10.67;8.03;;;7.80;39.90;;;;;;5032395;28;20186;-68
2022/05/03 04:06:39;;;;;;;9.80;8.57;;;7.90;39.50;;;;;;5021828;28;20493;-69
2022/05/03 04:09:05;;;;;;;10.40;8.90;;;7.80;39.60;;;;;;5025283;28;20866;-68
2022/05/03 04:11:44;;;;;;;8.10;7.10;;;7.70;40.40;;;;;;5022866;28;20252;-68
2022/05/03 04:14:13;;;;;;;9.43;7.93;;;7.80;40.50;;;;;;5021046;28;20269;-71
2022/05/03 04:16:39;;;;;;;9.40;8.30;;;7.90;39.90;;;;;;5033092;28;20508;-69
2022/05/03 04:19:05;;;;;;;8.37;7.53;;;7.90;40.50;;;;;;5032923;28;20501;-68
2022/05/03 04:21:31;;;;;;;10.67;9.20;;;7.90;39.70;;;;;;5032376;28;20417;-69
2022/05/03 04:23:56;;;;;;;7.40;6.67;;;8.00;39.60;;;;;;5031947;28;20416;-67
2022/05/03 04:26:22;;;;;;;8.30;7.53;;;7.90;40.50;;;;;;5032505;28;20209;-69
2022/05/03 04:28:47;;;;;;;8.07;7.30;;;7.90;40.50;;;;;;5032212;28;20284;-69
2022/05/03 04:31:13;;;;;;;12.50;8.90;;;8.00;40.60;;;;;;5032230;28;20182;-69
2022/05/03 04:33:38;;;;;;;9.53;7.77;;;8.00;40.60;;;;;;5032792;28;20190;-69
2022/05/03 04:36:04;;;;;;;8.83;7.93;;;8.00;40.50;;;;;;5031084;28;20203;-69
2022/05/03 04:38:30;;;;;;;11.00;8.60;;;8.10;40.70;;;;;;5024870;28;20207;-70
2022/05/03 04:41:02;;;;;;;8.70;7.80;;;8.20;40.80;;;;;;5013194;28;20460;-69
2022/05/03 04:43:29;;;;;;;9.67;7.37;;;8.30;39.60;;;;;;5019548;28;20186;-70
2022/05/03 04:45:54;;;;;;;10.10;7.40;;;8.40;39.30;;;;;;5021534;28;20473;-69
2022/05/03 04:48:20;;;;;;;7.60;6.80;;;8.50;38.70;;;;;;5012241;28;20454;-70
2022/05/03 04:50:46;;;;;;;7.63;6.70;;;8.60;38.90;;;;;;5017778;28;20252;-69
2022/05/03 04:53:12;;;;;;;12.90;7.63;;;8.70;38.90;;;;;;5018963;28;20184;-70
2022/05/03 04:55:39;;;;;;;8.87;8.07;;;8.80;38.90;;;;;;5012169;28;20467;-69
2022/05/03 04:58:05;;;;;;;9.27;7.17;;;8.90;38.70;;;;;;5010708;28;20455;-69
2022/05/03 05:00:30;;;;;;;10.30;7.90;;;9.00;38.20;;;;;;5013156;28;20477;-69
2022/05/03 05:02:56;;;;;;;7.93;6.67;;;9.10;38.40;;;;;;5011494;28;20172;-70
2022/05/03 05:05:21;;;;;;;7.13;6.43;;;9.20;38.10;;;;;;5010522;28;20216;-68
2022/05/03 05:07:47;;;;;;;7.90;7.10;;;9.30;37.10;;;;;;5011744;28;20185;-70
2022/05/03 05:10:26;;;;;;;13.90;6.80;;;9.40;36.60;;;;;;5012056;28;20660;-69
2022/05/03 05:12:53;;;;;;;12.73;7.40;;;9.50;36.70;;;;;;5011958;28;20200;-70
2022/05/03 05:15:18;;;;;;;10.97;9.97;;;10.20;38.30;;;;;;5011906;28;20431;-68
2022/05/03 05:17:44;;;;;;;8.37;7.13;;;11.30;35.10;;;;;;5011245;28;20467;-69
2022/05/03 05:20:10;;;;;;;9.17;8.33;;;12.50;32.50;;;;;;5011926;28;20176;-69
2022/05/03 05:22:36;;;;;;;8.93;8.20;;;13.50;26.00;;;;;;5011667;28;20231;-69
2022/05/03 05:25:02;;;;;;;9.63;8.90;;;14.50;23.40;;;;;;5011805;28;20433;-70
2022/05/03 05:27:27;;;;;;;13.27;12.37;;;15.50;22.60;;;;;;5011673;28;20178;-72
2022/05/03 05:29:53;;;;;;;13.07;12.20;;;16.30;20.80;;;;;;5011978;28;20752;-72
2022/05/03 05:32:18;;;;;;;13.53;12.63;;;16.90;18.80;;;;;;5010444;28;20262;-73
2022/05/03 05:34:44;;;;;;;15.93;14.60;;;17.70;16.70;;;;;;5010493;28;20571;-72
2022/05/03 05:37:10;;;;;;;16.10;15.13;;;18.20;15.30;;;;;;5012123;28;20239;-75
2022/05/03 05:39:35;;;;;;;16.13;15.30;;;18.80;13.50;;;;;;5015351;28;20470;-78
2022/05/03 05:42:01;;;;;;;16.40;15.40;;;19.30;13.70;;;;;;5015498;28;20267;-73
2022/05/03 05:44:28;;;;;;;16.73;15.97;;;19.60;12.90;;;;;;5015296;28;20196;-71
2022/05/03 05:46:55;;;;;;;17.07;16.10;;;20.10;11.70;;;;;;5015135;28;20414;-74
2022/05/03 05:49:21;;;;;;;15.73;15.03;;;20.60;11.30;;;;;;5015236;28;20895;-72
2022/05/03 05:51:46;;;;;;;17.50;16.40;;;21.20;11.40;;;;;;5015286;28;20413;-73
2022/05/03 05:54:13;;;;;;;16.60;15.80;;;21.70;9.50;;;;;;5014963;28;20176;-73
2022/05/03 05:56:41;;;;;;;17.73;16.83;;;22.00;9.00;;;;;;5015085;28;20434;-72
2022/05/03 05:59:06;;;;;;;17.23;15.90;;;22.60;9.30;;;;;;5014820;28;20418;-73
2022/05/03 06:01:42;;;;;;;17.33;16.23;;;23.30;8.70;;;;;;5015100;28;20407;-72
2022/05/03 06:04:08;;;;;;;16.27;15.50;;;23.80;7.20;;;;;;5014790;28;20175;-72
2022/05/03 06:06:36;;;;;;;17.50;16.70;;;23.80;6.80;;;;;;5014964;28;20414;-72
2022/05/03 06:09:05;;;;;;;17.33;16.53;;;24.00;5.10;;;;;;5014463;28;20411;-72
2022/05/03 06:11:31;;;;;;;16.93;16.13;;;24.10;5.70;;;;;;5015041;28;20405;-74
2022/05/03 06:13:57;;;;;;;17.43;16.43;;;23.90;5.60;;;;;;5015048;28;20437;-72
2022/05/03 06:16:22;;;;;;;18.10;17.20;;;23.80;5.60;;;;;;5014562;28;20510;-72
2022/05/03 06:18:48;;;;;;;17.67;16.77;;;23.40;6.00;;;;;;5014292;28;20230;-72
2022/05/03 06:21:13;;;;;;;17.23;16.23;;;22.90;5.90;;;;;;5013387;28;20234;-72
2022/05/03 06:23:39;;;;;;;18.90;17.90;;;22.20;6.80;;;;;;5014120;28;20235;-73
2022/05/03 06:26:05;;;;;;;18.10;17.00;;;21.50;7.90;;;;;;5014513;28;20208;-73
2022/05/03 06:28:34;;;;;;;17.80;16.70;;;21.00;8.30;;;;;;5014257;28;20557;-72
2022/05/03 06:31:00;;;;;;;18.07;16.80;;;19.60;10.60;;;;;;5014494;28;20494;-71
2022/05/03 06:33:25;;;;;;;16.43;15.40;;;19.20;11.50;;;;;;5013077;28;20473;-72
2022/05/03 06:35:51;;;;;;;17.43;16.53;;;19.60;11.80;;;;;;5015990;28;20195;-71
2022/05/03 06:38:16;;;;;;;17.23;16.23;;;19.90;9.70;;;;;;5014028;28;20184;-71
2022/05/03 06:40:42;;;;;;;16.17;15.27;;;20.20;10.00;;;;;;5014371;28;20253;-72
2022/05/03 06:43:08;;;;;;;18.93;17.70;;;20.40;9.70;;;;;;5014240;28;20530;-72
2022/05/03 06:45:34;;;;;;;16.90;16.03;;;20.40;10.10;;;;;;5014187;28;20200;-71
2022/05/03 06:48:00;;;;;;;17.40;16.30;;;21.20;9.50;;;;;;5013785;28;20817;-72
2022/05/03 06:50:26;;;;;;;16.47;15.57;;;22.10;8.40;;;;;;5012989;28;20183;-73
2022/05/03 06:52:52;;;;;;;17.30;16.10;;;22.70;8.10;;;;;;5013884;28;20422;-73
2022/05/03 06:55:18;;;;;;;17.43;16.33;;;23.70;7.00;;;;;;5013578;28;20920;-72
2022/05/03 06:57:44;;;;;;;19.50;18.10;;;24.70;5.60;;;;;;5013779;28;20207;-73
2022/05/03 07:00:10;;;;;;;17.87;16.97;;;25.50;4.10;;;;;;5013978;28;20180;-73
2022/05/03 07:02:36;;;;;;;18.37;17.33;;;26.10;3.50;;;;;;5013663;28;20422;-73
2022/05/03 07:05:03;;;;;;;21.00;19.00;;;26.70;2.60;;;;;;5025409;28;20466;-73
2022/05/03 07:07:29;;;;;;;17.60;16.40;;;26.70;3.20;;;;;;5028864;28;20467;-72
2022/05/03 07:09:56;;;;;;;17.70;16.60;;;26.30;2.30;;;;;;5029580;28;20421;-72
2022/05/03 07:12:21;;;;;;;17.20;16.30;;;26.00;3.30;;;;;;5028965;28;20407;-73
2022/05/03 07:14:47;;;;;;;18.03;17.03;;;26.20;2.80;;;;;;5027735;28;20881;-72
2022/05/03 07:22:45;;;;;;;18.30;17.20;;;26.50;2.50;;;;;;5029195;28;20187;-72
2022/05/03 07:22:45;;;;;;;18.03;17.13;;;27.40;2.20;;;;;;5029255;28;20488;-72
2022/05/03 07:25:11;;;;;;;18.73;17.77;;;27.60;1.70;;;;;;5028838;28;20568;-72
2022/05/03 07:27:37;;;;;;;19.10;17.90;;;27.90;1.20;;;;;;5013270;28;20461;-72
2022/05/03 07:30:03;;;;;;;19.00;17.80;;;28.20;1.00;;;;;;5017519;28;20715;-71
2022/05/03 07:32:28;;;;;;;20.13;19.03;;;26.10;2.30;;;;;;5023810;28;20187;-71
2022/05/03 07:34:54;;;;;;;18.17;17.27;;;26.70;2.60;;;;;;5028796;28;20445;-71
2022/05/03 07:37:20;;;;;;;18.47;17.10;;;26.90;2.00;;;;;;5023322;28;20184;-71
2022/05/03 07:39:45;;;;;;;17.93;16.93;;;27.40;2.20;;;;;;5008860;28;20286;-71
2022/05/03 07:42:11;;;;;;;19.43;18.20;;;26.90;1.90;;;;;;5008840;28;20184;-71
2022/05/03 07:44:36;;;;;;;17.63;16.73;;;26.30;2.30;;;;;;5014343;28;20298;-70
2022/05/03 07:47:02;;;;;;;18.93;17.77;;;26.90;2.70;;;;;;5027788;28;20210;-70
2022/05/03 07:49:28;;;;;;;19.50;18.30;;;27.00;1.40;;;;;;5025579;28;20183;-70
2022/05/03 07:51:54;;;;;;;19.23;18.10;;;26.30;2.30;;;;;;5025892;28;20726;-71
2022/05/03 07:54:19;;;;;;;18.23;17.23;;;25.00;2.10;;;;;;5028418;28;20203;-71
2022/05/03 07:56:46;;;;;;;18.10;17.20;;;24.90;4.60;;;;;;5029569;28;20195;-71
2022/05/03 07:59:12;;;;;;;18.40;17.40;;;25.60;3.70;;;;;;5028695;28;20179;-73
2022/05/03 08:01:40;;;;;;;18.20;17.10;;;25.50;2.70;;;;;;5027790;28;20426;-73
2022/05/03 08:04:06;;;;;;;16.73;15.83;;;25.50;3.70;;;;;;5028410;28;20496;-74
2022/05/03 08:06:33;;;;;;;18.13;16.80;;;25.40;2.90;;;;;;5028917;28;20504;-72
2022/05/03 08:08:59;;;;;;;17.63;16.70;;;24.90;4.10;;;;;;5028666;28;20485;-72
2022/05/03 08:11:25;;;;;;;17.23;16.23;;;25.00;4.20;;;;;;5029607;28;20927;-74
2022/05/03 08:13:52;;;;;;;19.27;18.20;;;24.30;4.70;;;;;;5028207;28;20456;-73
2022/05/03 08:16:19;;;;;;;17.17;16.07;;;24.00;5.70;;;;;;5027515;28;20437;-72
2022/05/03 08:18:45;;;;;;;17.67;16.87;;;23.90;5.60;;;;;;5028109;28;20529;-72
2022/05/03 08:21:11;;;;;;;16.80;15.80;;;22.30;7.00;;;;;;5019125;28;20892;-73
2022/05/03 08:23:40;;;;;;;17.30;16.03;;;22.40;7.30;;;;;;5007435;28;20275;-73
2022/05/03 08:26:06;;;;;;;18.33;17.33;;;22.70;7.70;;;;;;5027769;28;20525;-69
2022/05/03 08:28:33;;;;;;;17.53;16.47;;;22.00;7.80;;;;;;5026664;28;20560;-76
2022/05/03 08:30:59;;;;;;;18.03;16.90;;;21.60;8.70;;;;;;5027799;28;20555;-72
2022/05/03 08:33:26;;;;;;;17.77;16.57;;;22.10;8.90;;;;;;5028464;28;20924;-73
2022/05/03 08:35:51;;;;;;;17.40;16.40;;;22.10;7.80;;;;;;5028559;28;20465;-71
2022/05/03 08:43:45;;;;;;;17.90;16.90;;;20.20;9.10;;;;;;5030931;28;20441;-73
2022/05/03 08:46:12;;;;;;;16.20;15.10;;;20.50;10.10;;;;;;5031010;28;20752;-68
2022/05/03 08:48:42;;;;;;;17.13;16.33;;;21.00;9.90;;;;;;5031618;28;20203;-72
2022/05/03 08:51:12;;;;;;;16.27;15.57;;;21.10;8.30;;;;;;5024193;28;20484;-71
2022/05/03 08:53:40;;;;;;;16.53;15.73;;;20.90;8.20;;;;;;5015158;28;20433;-71
2022/05/03 08:56:06;;;;;;;16.30;15.50;;;21.00;9.10;;;;;;5030752;28;20445;-72
2022/05/03 08:58:33;;;;;;;14.57;13.87;;;20.80;8.30;;;;;;5031655;28;20428;-71
2022/05/03 09:01:03;;;;;;;16.33;15.37;;;20.10;9.30;;;;;;5031541;28;20778;-71
2022/05/03 09:03:28;;;;;;;14.73;13.93;;;20.10;9.60;;;;;;5031983;28;20479;-71
2022/05/03 09:05:54;;;;;;;14.37;13.37;;;20.40;9.40;;;;;;5031097;28;20465;-71
2022/05/03 09:08:22;;;;;;;15.80;15.00;;;20.40;9.80;;;;;;5031013;28;20235;-71
2022/05/03 09:10:47;;;;;;;15.97;15.07;;;20.00;11.00;;;;;;5031928;28;20221;-71
2022/05/03 09:13:22;;;;;;;14.10;13.40;;;20.00;10.80;;;;;;5034220;28;20822;-71
2022/05/03 09:15:56;;;;;;;14.67;13.47;;;19.70;10.90;;;;;;5035602;28;20191;-71
2022/05/03 09:18:24;;;;;;;15.07;14.27;;;19.70;11.90;;;;;;5034734;28;20437;-71
2022/05/03 09:23:48;;;;;;;13.40;12.70;;;18.90;12.50;;;;;;5035293;28;20460;-70
2022/05/03 09:26:26;;;;;;;13.83;12.90;;;18.70;9.60;;;;;;5035200;28;20861;-73
2022/05/03 09:29:11;;;;;;;14.00;13.30;;;18.50;9.70;;;;;;5032973;28;20495;-71
2022/05/03 09:31:40;;;;;;;13.90;13.30;;;18.40;10.20;;;;;;5033684;28;20441;-70
2022/05/03 09:34:28;;;;;;;13.70;13.10;;;18.30;8.60;;;;;;5034815;28;20457;-71
2022/05/03 09:37:09;;;;;;;14.13;13.53;;;17.90;10.00;;;;;;5035329;28;20435;-70
2022/05/03 09:39:41;;;;;;;13.60;13.00;;;18.00;10.70;;;;;;5033044;28;20475;-71
2022/05/03 09:42:13;;;;;;;12.90;12.40;;;18.30;11.00;;;;;;5035704;28;20449;-72
2022/05/03 09:44:51;;;;;;;13.57;12.77;;;18.60;11.10;;;;;;5015560;28;20441;-72
2022/05/03 09:47:18;;;;;;;14.30;13.60;;;18.40;9.80;;;;;;5017239;28;20848;-72
2022/05/03 09:49:43;;;;;;;13.77;13.07;;;18.50;10.70;;;;;;5037180;28;20438;-73
2022/05/03 09:52:29;;;;;;;13.33;12.63;;;18.60;10.30;;;;;;5036281;28;20950;-73
2022/05/03 09:55:04;;;;;;;13.70;13.10;;;18.80;10.70;;;;;;5032992;28;20203;-72
2022/05/03 09:57:33;;;;;;;13.60;13.00;;;18.70;10.30;;;;;;5035030;28;20437;-73
2022/05/03 10:00:00;;;;;;;12.83;12.23;;;18.80;10.10;;;;;;5034860;28;20421;-72
2022/05/03 10:02:29;;;;;;;13.03;12.47;;;18.30;10.10;;;;;;5035144;28;20509;-72
2022/05/03 10:04:56;;;;;;;13.77;13.07;;;18.50;11.00;;;;;;5034205;28;20449;-72
2022/05/03 10:07:23;;;;;;;14.10;13.10;;;18.40;10.10;;;;;;5035021;28;20985;-71
2022/05/03 10:09:50;;;;;;;12.90;12.20;;;18.60;10.70;;;;;;5034595;28;20413;-71
2022/05/03 10:12:16;;;;;;;14.30;13.67;;;18.80;10.20;;;;;;5035283;28;20467;-72
2022/05/03 10:14:43;;;;;;;13.53;12.83;;;18.80;9.90;;;;;;5035641;28;20426;-73
2022/05/03 10:20:36;;;;;;;13.50;12.80;;;19.20;9.90;;;;;;5035551;28;20414;-73
2022/05/03 10:23:01;;;;;;;13.20;12.43;;;19.30;8.80;;;;;;5026024;28;20444;-73
2022/05/03 10:25:44;;;;;;;13.13;12.40;;;19.40;9.60;;;;;;5024843;28;20450;-72
2022/05/03 10:28:10;;;;;;;14.07;13.37;;;19.60;9.00;;;;;;5035432;28;20236;-72
2022/05/03 10:30:38;;;;;;;14.03;13.43;;;19.80;8.40;;;;;;5035989;28;20464;-73
2022/05/03 10:33:19;;;;;;;13.30;12.60;;;19.70;7.40;;;;;;5035433;28;20597;-72
2022/05/03 10:35:46;;;;;;;13.63;13.03;;;19.70;7.70;;;;;;5034592;28;20437;-72
2022/05/03 10:38:12;;;;;;;14.20;13.50;;;19.70;7.40;;;;;;5034416;28;20436;-73
2022/05/03 10:40:43;;;;;;;14.60;13.87;;;19.70;7.40;;;;;;5032993;28;20421;-73
2022/05/03 10:43:11;;;;;;;14.33;13.73;;;19.80;7.40;;;;;;5033153;28;20551;-72
2022/05/03 10:45:53;;;;;;;14.50;13.60;;;20.00;8.40;;;;;;5033965;28;20472;-72
2022/05/03 10:48:23;;;;;;;14.43;13.83;;;19.80;7.50;;;;;;5034206;28;20850;-73
2022/05/03 10:50:52;;;;;;;15.77;14.67;;;20.00;7.60;;;;;;5034090;28;20406;-73
2022/05/03 10:53:20;;;;;;;14.10;13.40;;;20.00;7.60;;;;;;5034222;28;20463;-73
2022/05/03 10:56:06;;;;;;;13.50;12.90;;;20.10;7.60;;;;;;5033833;28;20442;-71
2022/05/03 10:58:34;;;;;;;14.37;13.50;;;20.00;7.60;;;;;;5033884;28;20418;-72
2022/05/03 11:01:18;;;;;;;15.60;14.80;;;19.70;7.30;;;;;;5033941;28;20987;-74
2022/05/03 11:03:57;;;;;;;14.87;14.17;;;19.80;7.40;;;;;;5034057;28;20414;-73
2022/05/03 11:06:23;;;;;;;14.43;13.73;;;19.70;7.60;;;;;;5014580;28;20506;-72
2022/05/03 11:11:38;;;;;;;14.20;13.50;;;19.40;7.90;;;;;;5014798;28;20490;-71
2022/05/03 11:14:26;;;;;;;13.90;13.10;;;19.50;7.90;;;;;;5022175;28;20799;-72
2022/05/03 11:17:11;;;;;;;14.40;13.70;;;19.60;8.60;;;;;;5033356;28;20778;-72
2022/05/03 11:19:43;;;;;;;13.63;13.03;;;19.80;9.00;;;;;;5028233;28;20470;-69
2022/05/03 11:22:13;;;;;;;13.30;12.60;;;19.90;9.50;;;;;;5034116;28;20940;-67
2022/05/03 11:24:47;;;;;;;13.57;12.90;;;19.90;9.70;;;;;;5034085;28;20457;-69
2022/05/03 11:27:14;;;;;;;12.33;11.83;;;20.00;9.70;;;;;;5033225;28;20458;-68
2022/05/03 11:29:42;;;;;;;13.13;12.13;;;20.10;9.90;;;;;;5033498;28;20406;-69
2022/05/03 11:32:09;;;;;;;13.70;12.90;;;20.20;10.10;;;;;;5034260;28;20406;-69
2022/05/03 11:34:36;;;;;;;13.70;13.00;;;20.20;10.10;;;;;;5034311;28;20449;-69
2022/05/03 11:37:03;;;;;;;13.33;12.73;;;20.20;10.30;;;;;;5034050;28;20406;-70
2022/05/03 11:39:29;;;;;;;14.77;12.80;;;20.20;10.40;;;;;;5023815;28;20511;-69
2022/05/03 11:41:55;;;;;;;14.13;13.03;;;20.10;12.60;;;;;;5014899;28;20410;-69
2022/05/03 11:44:20;;;;;;;12.50;11.70;;;20.10;13.40;;;;;;5015272;28;20916;-68
2022/05/03 11:46:48;;;;;;;12.63;11.80;;;19.90;14.90;;;;;;5013714;28;20451;-68
2022/05/03 11:49:16;;;;;;;11.90;11.10;;;19.90;16.00;;;;;;5013989;28;20548;-69
2022/05/03 11:57:23;;;;;;;12.83;12.03;;;19.70;16.40;;;;;;5034802;28;20417;-69
2022/05/03 11:59:50;;;;;;;10.77;10.17;;;19.50;17.30;;;;;;5034303;28;20406;-68
2022/05/03 12:02:29;;;;;;;12.37;11.57;;;19.50;17.40;;;;;;5034397;28;20899;-71
2022/05/03 12:05:07;;;;;;;11.43;10.77;;;19.60;17.60;;;;;;5034242;28;20453;-68
2022/05/03 12:07:50;;;;;;;10.70;10.00;;;19.50;18.10;;;;;;5034851;28;20458;-68
2022/05/03 12:10:31;;;;;;;10.60;10.00;;;19.50;18.50;;;;;;5035432;28;20398;-69
2022/05/03 12:13:13;;;;;;;11.20;10.40;;;19.60;17.30;;;;;;5035444;28;20982;-69
2022/05/03 12:15:42;;;;;;;11.03;10.53;;;19.70;17.20;;;;;;5028673;28;20476;-69
2022/05/03 12:18:37;;;;;;;11.07;10.43;;;19.80;16.40;;;;;;5032141;28;20426;-70
2022/05/03 12:21:11;;;;;;;12.07;11.17;;;19.80;16.40;;;;;;5034923;28;20418;-69
2022/05/03 12:23:37;;;;;;;11.63;11.10;;;20.00;15.40;;;;;;5033480;28;20409;-69
2022/05/03 12:26:24;;;;;;;12.20;11.60;;;19.80;15.50;;;;;;5031629;28;20452;-73
2022/05/03 12:28:59;;;;;;;12.70;12.00;;;19.80;14.30;;;;;;5028905;28;20301;-71
2022/05/03 12:31:35;;;;;;;12.40;11.80;;;19.70;13.00;;;;;;5028803;28;20571;-69
2022/05/03 12:34:02;;;;;;;12.90;12.20;;;19.50;13.10;;;;;;5029709;28;20422;-71
2022/05/03 12:36:39;;;;;;;11.77;11.07;;;19.40;14.50;;;;;;5027675;28;20461;-70
2022/05/03 12:39:19;;;;;;;12.00;11.50;;;19.00;13.80;;;;;;5026845;28;20446;-69
2022/05/03 12:41:56;;;;;;;11.80;11.20;;;18.90;14.30;;;;;;5009735;28;20554;-69
2022/05/03 12:44:23;;;;;;;11.63;11.13;;;18.90;14.20;;;;;;5012122;28;20453;-70
2022/05/03 12:46:50;;;;;;;11.57;10.97;;;18.50;14.30;;;;;;5008939;28;20452;-71
2022/05/03 12:49:16;;;;;;;11.63;11.10;;;18.60;15.60;;;;;;5025120;28;20835;-70
2022/05/03 12:51:44;;;;;;;11.90;11.20;;;18.70;14.90;;;;;;5012247;28;20796;-69
2022/05/03 12:54:10;;;;;;;11.73;11.23;;;18.80;14.70;;;;;;5008417;28;20426;-70
2022/05/03 12:59:22;;;;;;;11.97;11.40;;;18.70;15.60;;;;;;5012421;28;20426;-69
2022/05/03 13:01:51;;;;;;;13.47;12.43;;;18.90;15.80;;;;;;5012550;28;20419;-71
2022/05/03 13:04:18;;;;;;;11.37;10.73;;;19.00;15.80;;;;;;5010867;28;20458;-68
2022/05/03 13:06:45;;;;;;;11.90;11.30;;;19.10;15.90;;;;;;5012546;28;20417;-70
2022/05/03 13:09:10;;;;;;;11.27;10.77;;;19.40;16.10;;;;;;5011989;28;20468;-68
2022/05/03 13:11:40;;;;;;;12.40;11.80;;;19.50;15.80;;;;;;5011071;28;20423;-69
2022/05/03 13:14:07;;;;;;;12.03;11.53;;;19.60;14.40;;;;;;5012270;28;20642;-71
2022/05/03 13:16:32;;;;;;;10.90;10.40;;;18.90;15.10;;;;;;5014628;28;20414;-69
2022/05/03 13:18:58;;;;;;;11.97;11.47;;;19.00;14.70;;;;;;5014458;28;20513;-70
2022/05/03 13:21:23;;;;;;;12.60;11.63;;;18.80;12.70;;;;;;5031785;28;20172;-70
2022/05/03 13:23:50;;;;;;;11.63;11.13;;;19.00;12.10;;;;;;5031540;28;20199;-69
2022/05/03 13:26:15;;;;;;;11.87;11.37;;;19.40;11.90;;;;;;5031934;28;20225;-69
2022/05/03 13:28:41;;;;;;;11.97;11.40;;;19.60;11.30;;;;;;5031729;28;20552;-68
2022/05/03 13:31:07;;;;;;;10.60;10.17;;;19.80;11.90;;;;;;5019639;28;20219;-70